Time;durP1;ratioP1;P1;durP2;ratioP2;P2;SDS_P1;SDS_P2;PMS_P1;PMS_P2;Temp;Humidity;BMP_temperature;BMP_pressure;BME280_temperature;BME280_humidity;BME280_pressure;Samples;Min_cycle;Max_cycle;Signal;HPM_P1;HPM_P2
2023/01/12 00:00:26;;;;;;;10.10;2.30;;;9.70;78.90;;;;;;5041461;28;20461;-68
2023/01/12 00:02:56;;;;;;;10.27;2.17;;;9.70;78.90;;;;;;5041223;28;20455;-68
2023/01/12 00:05:24;;;;;;;7.43;2.00;;;9.70;78.90;;;;;;5038539;28;21201;-68
2023/01/12 00:07:52;;;;;;;13.83;3.17;;;9.70;78.90;;;;;;5039053;28;20536;-70
2023/01/12 00:10:20;;;;;;;10.50;2.97;;;9.80;78.80;;;;;;5039885;28;21231;-68
2023/01/12 00:12:48;;;;;;;10.37;1.93;;;9.70;78.80;;;;;;5039515;28;20462;-69
2023/01/12 00:16:33;;;;;;;10.13;2.27;;;9.70;78.80;;;;;;5037923;28;20459;-70
2023/01/12 00:18:07;;;;;;;14.13;2.83;;;9.70;78.70;;;;;;5040703;28;21289;-69
2023/01/12 00:20:36;;;;;;;17.23;3.00;;;9.70;78.80;;;;;;5039351;28;20521;-68
2023/01/12 00:23:04;;;;;;;10.40;2.33;;;9.70;78.70;;;;;;5037245;28;20466;-67
2023/01/12 00:25:32;;;;;;;12.70;2.60;;;9.70;78.70;;;;;;5039320;28;20478;-68
2023/01/12 00:28:00;;;;;;;8.33;2.27;;;9.70;78.60;;;;;;5040404;28;21007;-67
2023/01/12 00:30:28;;;;;;;13.77;2.30;;;9.70;78.60;;;;;;5041267;28;20447;-69
2023/01/12 00:32:57;;;;;;;9.33;2.17;;;9.70;78.70;;;;;;5040463;28;20451;-69
2023/01/12 00:35:27;;;;;;;10.83;2.63;;;9.70;78.70;;;;;;5039390;28;20470;-69
2023/01/12 00:37:56;;;;;;;10.63;2.30;;;9.70;78.70;;;;;;5038931;28;20490;-68
2023/01/12 00:40:25;;;;;;;12.07;1.67;;;9.70;78.60;;;;;;5039832;28;21023;-67
2023/01/12 00:45:40;;;;;;;10.23;2.40;;;9.70;78.50;;;;;;5023340;28;20479;-69
2023/01/12 00:48:11;;;;;;;9.40;2.73;;;9.70;78.50;;;;;;5040242;28;21175;-69
2023/01/12 00:50:42;;;;;;;9.90;2.10;;;9.70;78.60;;;;;;5040709;28;21027;-68
2023/01/12 00:53:10;;;;;;;9.10;2.57;;;9.70;78.60;;;;;;5039449;28;21066;-69
2023/01/12 00:55:40;;;;;;;12.70;2.80;;;9.70;78.60;;;;;;5037987;28;20483;-69
2023/01/12 00:58:08;;;;;;;10.17;2.63;;;9.70;78.60;;;;;;5039725;28;20482;-69
2023/01/12 01:00:36;;;;;;;13.10;3.00;;;9.70;78.60;;;;;;5038989;28;20967;-68
2023/01/12 01:03:04;;;;;;;12.83;2.60;;;9.60;78.60;;;;;;5039377;28;20455;-68
2023/01/12 01:05:32;;;;;;;10.23;2.20;;;9.70;78.50;;;;;;5036948;28;20454;-70
2023/01/12 01:08:03;;;;;;;10.60;2.80;;;9.60;78.50;;;;;;5038630;28;20477;-70
2023/01/12 01:10:31;;;;;;;11.50;2.50;;;9.60;78.50;;;;;;5039072;28;20532;-69
2023/01/12 01:12:59;;;;;;;13.20;2.50;;;9.60;78.60;;;;;;5038611;28;20463;-69
2023/01/12 01:15:27;;;;;;;12.40;2.30;;;9.60;78.60;;;;;;5039745;28;20471;-68
2023/01/12 01:17:55;;;;;;;14.90;2.60;;;9.60;78.70;;;;;;5038131;28;20531;-66
2023/01/12 01:20:29;;;;;;;18.50;2.83;;;9.60;78.60;;;;;;5038808;28;20516;-67
2023/01/12 01:22:57;;;;;;;6.93;2.10;;;9.60;78.70;;;;;;5039707;28;20463;-67
2023/01/12 01:25:27;;;;;;;8.67;2.53;;;9.60;78.60;;;;;;5038708;28;20548;-68
2023/01/12 01:27:54;;;;;;;8.60;2.20;;;9.60;78.50;;;;;;5040809;28;20459;-69
2023/01/12 01:30:23;;;;;;;9.23;2.80;;;9.60;78.50;;;;;;5039706;28;20612;-69
2023/01/12 01:32:51;;;;;;;13.37;3.37;;;9.60;78.60;;;;;;5040030;28;20466;-69
2023/01/12 01:35:19;;;;;;;17.00;2.57;;;9.60;78.50;;;;;;5040720;28;21218;-68
2023/01/12 01:37:47;;;;;;;7.90;2.30;;;9.60;78.60;;;;;;5045482;28;20481;-68
2023/01/12 01:40:15;;;;;;;9.63;2.50;;;9.60;78.60;;;;;;5044649;28;20545;-68
2023/01/12 01:42:45;;;;;;;8.40;2.53;;;9.60;78.70;;;;;;5045468;28;20462;-67
2023/01/12 01:45:15;;;;;;;12.37;2.50;;;9.60;78.70;;;;;;5046383;28;20459;-68
2023/01/12 01:47:49;;;;;;;11.40;2.40;;;9.60;78.70;;;;;;5045876;28;20477;-68
2023/01/12 01:50:23;;;;;;;14.93;2.40;;;9.60;78.70;;;;;;5043432;28;20477;-68
2023/01/12 01:52:56;;;;;;;17.13;2.53;;;9.50;78.70;;;;;;5042209;28;20463;-69
2023/01/12 01:55:28;;;;;;;12.43;2.63;;;9.50;78.80;;;;;;5049864;28;20455;-69
2023/01/12 01:58:00;;;;;;;9.37;2.20;;;9.50;78.80;;;;;;5050444;28;20510;-69
2023/01/12 02:00:28;;;;;;;20.63;3.03;;;9.60;78.90;;;;;;5051225;28;20851;-69
2023/01/12 02:02:57;;;;;;;16.17;3.23;;;9.60;78.80;;;;;;5051711;28;20474;-68
2023/01/12 02:05:27;;;;;;;13.70;2.83;;;9.60;78.70;;;;;;5053033;28;20443;-70
2023/01/12 02:08:00;;;;;;;7.60;2.13;;;9.60;78.70;;;;;;5050326;28;20860;-68
2023/01/12 02:10:28;;;;;;;9.70;3.00;;;9.50;78.80;;;;;;5053634;28;20836;-69
2023/01/12 02:19:26;;;;;;;14.50;2.53;;;9.60;78.90;;;;;;5102362;27;20568;-69
2023/01/12 02:22:23;;;;;;;15.23;2.50;;;9.60;78.90;;;;;;5093762;28;20465;-67
2023/01/12 02:25:19;;;;;;;8.87;2.63;;;9.60;78.90;;;;;;5093169;28;20925;-69
2023/01/12 02:28:12;;;;;;;12.70;2.90;;;9.60;78.90;;;;;;5070975;28;20510;-70
2023/01/12 02:31:16;;;;;;;10.27;2.43;;;9.60;78.90;;;;;;5064147;28;20528;-69
2023/01/12 02:33:58;;;;;;;13.43;2.20;;;9.60;79.00;;;;;;5065096;28;20450;-69
2023/01/12 02:36:38;;;;;;;17.03;3.50;;;9.60;78.90;;;;;;5062505;28;20505;-69
2023/01/12 02:39:12;;;;;;;14.63;3.03;;;9.60;78.90;;;;;;5065173;28;20479;-69
2023/01/12 02:44:48;;;;;;;17.20;3.07;;;9.60;79.00;;;;;;5008903;28;20562;-68
2023/01/12 02:47:25;;;;;;;12.03;2.63;;;9.70;79.00;;;;;;5059391;28;20469;-69
2023/01/12 02:49:59;;;;;;;11.00;2.77;;;9.70;78.90;;;;;;5061072;28;20958;-69
2023/01/12 02:52:32;;;;;;;14.50;2.30;;;9.70;78.90;;;;;;5055229;28;20457;-72
2023/01/12 02:55:01;;;;;;;9.53;2.77;;;9.70;79.00;;;;;;5055478;28;20510;-69
2023/01/12 02:57:31;;;;;;;7.90;2.13;;;9.70;78.90;;;;;;5051269;28;20486;-68
2023/01/12 03:00:01;;;;;;;9.70;1.90;;;9.70;79.00;;;;;;5057033;28;20503;-68
2023/01/12 03:02:31;;;;;;;12.50;3.37;;;9.70;79.00;;;;;;5061201;28;20472;-70
2023/01/12 03:04:59;;;;;;;12.63;2.40;;;9.70;79.00;;;;;;5058811;28;21159;-69
2023/01/12 03:07:48;;;;;;;12.93;3.90;;;9.70;79.10;;;;;;5055743;28;20485;-68
2023/01/12 03:10:35;;;;;;;12.70;3.27;;;9.70;79.10;;;;;;5057791;28;20512;-68
2023/01/12 03:13:07;;;;;;;8.90;2.30;;;9.70;79.00;;;;;;5053440;28;20480;-71
2023/01/12 03:15:40;;;;;;;14.13;3.30;;;9.70;78.90;;;;;;5056276;28;20454;-70
2023/01/12 03:18:14;;;;;;;12.07;2.60;;;9.70;78.80;;;;;;5060726;28;20486;-70
2023/01/12 03:20:47;;;;;;;10.03;2.60;;;9.70;78.80;;;;;;5060936;28;21046;-70
2023/01/12 03:23:20;;;;;;;12.37;2.70;;;9.70;78.80;;;;;;5063007;28;20461;-71
2023/01/12 03:25:51;;;;;;;14.10;3.53;;;9.60;78.80;;;;;;5056960;28;20485;-72
2023/01/12 03:28:22;;;;;;;13.50;2.60;;;9.60;78.90;;;;;;5051556;28;20446;-68
2023/01/12 03:30:56;;;;;;;20.97;3.10;;;9.60;78.90;;;;;;5042868;28;20459;-69
2023/01/12 03:33:26;;;;;;;14.20;3.00;;;9.60;78.90;;;;;;5041257;28;20542;-69
2023/01/12 03:36:03;;;;;;;15.03;2.50;;;9.60;79.00;;;;;;5041034;28;20489;-69
2023/01/12 03:38:42;;;;;;;20.00;3.33;;;9.60;79.00;;;;;;5047259;28;20954;-71
2023/01/12 03:41:15;;;;;;;14.70;2.20;;;9.60;79.00;;;;;;5041880;28;20459;-72
2023/01/12 03:43:48;;;;;;;17.97;2.60;;;9.60;78.90;;;;;;5043329;28;20514;-70
2023/01/12 03:46:22;;;;;;;11.17;2.50;;;9.60;78.90;;;;;;5045550;28;20489;-68
2023/01/12 03:48:55;;;;;;;14.87;3.80;;;9.60;78.90;;;;;;5047161;28;20566;-68
2023/01/12 03:51:27;;;;;;;14.00;2.90;;;9.60;78.90;;;;;;5044006;28;20461;-68
2023/01/12 03:53:57;;;;;;;17.00;3.13;;;9.60;78.90;;;;;;5048801;28;20585;-69
2023/01/12 03:56:29;;;;;;;12.87;2.23;;;9.60;78.90;;;;;;5048494;28;20513;-69
2023/01/12 03:58:57;;;;;;;12.73;2.20;;;9.60;78.90;;;;;;5046343;28;20491;-69
2023/01/12 04:01:25;;;;;;;12.50;4.00;;;9.60;78.90;;;;;;5044752;28;20470;-69
2023/01/12 04:03:57;;;;;;;9.80;2.73;;;9.60;79.10;;;;;;5041975;28;20451;-68
2023/01/12 04:06:25;;;;;;;9.53;2.50;;;9.60;79.10;;;;;;5044095;28;20481;-69
2023/01/12 04:08:53;;;;;;;13.47;2.80;;;9.60;79.10;;;;;;5048534;28;20454;-70
2023/01/12 04:14:06;;;;;;;10.20;2.40;;;9.60;79.20;;;;;;5045928;28;20458;-69
2023/01/12 04:16:34;;;;;;;20.10;3.30;;;9.60;79.10;;;;;;5043623;28;20536;-69
2023/01/12 04:19:03;;;;;;;18.10;3.17;;;9.60;79.20;;;;;;5048821;28;20525;-70
2023/01/12 04:24:17;;;;;;;10.23;2.80;;;9.70;79.10;;;;;;5040612;28;20516;-70
2023/01/12 04:26:45;;;;;;;21.13;3.10;;;9.70;79.10;;;;;;5039755;28;20471;-68
2023/01/12 04:29:14;;;;;;;8.23;2.13;;;9.70;79.00;;;;;;5039803;28;20455;-70
2023/01/12 04:31:42;;;;;;;18.43;3.40;;;9.70;79.00;;;;;;5050080;28;20529;-70
2023/01/12 04:34:11;;;;;;;8.87;2.90;;;9.70;79.00;;;;;;5046249;28;20483;-69
2023/01/12 04:36:41;;;;;;;12.37;2.93;;;9.70;79.10;;;;;;5046470;28;20483;-70
2023/01/12 04:39:09;;;;;;;9.20;2.20;;;9.70;79.10;;;;;;5040359;28;20482;-69
2023/01/12 04:41:37;;;;;;;9.73;3.03;;;9.70;79.10;;;;;;5036391;28;21249;-69
2023/01/12 04:44:05;;;;;;;21.73;2.83;;;9.70;79.10;;;;;;5037508;28;21071;-69
2023/01/12 04:46:33;;;;;;;11.30;2.20;;;9.70;79.10;;;;;;5044902;28;21257;-69
2023/01/12 04:49:01;;;;;;;9.77;2.37;;;9.80;79.20;;;;;;5042032;28;20481;-69
2023/01/12 04:51:30;;;;;;;11.37;2.77;;;9.80;79.10;;;;;;5049453;28;20462;-70
2023/01/12 04:53:58;;;;;;;11.00;3.53;;;9.80;79.00;;;;;;5042199;28;21009;-70
2023/01/12 04:56:26;;;;;;;12.10;2.83;;;9.80;79.00;;;;;;5045526;28;20623;-71
2023/01/12 04:58:58;;;;;;;10.00;2.40;;;9.80;79.10;;;;;;5043944;28;20537;-69
2023/01/12 05:01:27;;;;;;;11.80;2.03;;;9.80;79.10;;;;;;5042476;28;20463;-70
2023/01/12 05:03:59;;;;;;;8.13;2.87;;;9.80;79.10;;;;;;5044357;28;20465;-70
2023/01/12 05:06:28;;;;;;;8.47;2.23;;;9.90;79.10;;;;;;5044234;28;20480;-68
2023/01/12 05:11:42;;;;;;;8.97;2.40;;;9.90;79.00;;;;;;5019929;28;20466;-70
2023/01/12 05:14:10;;;;;;;12.63;2.57;;;9.90;79.10;;;;;;5049486;28;20556;-68
2023/01/12 05:16:38;;;;;;;9.13;2.17;;;9.90;79.00;;;;;;5050611;28;20484;-69
2023/01/12 05:19:06;;;;;;;21.03;3.50;;;9.90;78.90;;;;;;5044975;28;20486;-69
2023/01/12 05:21:34;;;;;;;11.10;2.27;;;9.90;78.90;;;;;;5043656;28;21300;-69
2023/01/12 05:24:03;;;;;;;11.13;3.10;;;9.80;78.90;;;;;;5044670;28;20464;-68
2023/01/12 05:26:31;;;;;;;12.60;2.53;;;9.80;79.10;;;;;;5043260;28;21013;-68
2023/01/12 05:28:59;;;;;;;9.77;2.17;;;9.90;78.90;;;;;;5041969;28;20525;-68
2023/01/12 05:31:27;;;;;;;10.70;2.50;;;9.90;78.80;;;;;;5035883;28;20460;-70
2023/01/12 05:33:55;;;;;;;15.13;2.90;;;9.90;78.90;;;;;;5043142;28;20496;-68
2023/01/12 05:36:23;;;;;;;14.50;2.70;;;9.90;78.80;;;;;;5048884;28;20482;-71
2023/01/12 05:38:53;;;;;;;10.80;2.10;;;9.90;78.70;;;;;;5046120;28;20492;-68
2023/01/12 05:41:22;;;;;;;14.83;2.70;;;9.90;78.70;;;;;;5045644;28;20435;-68
2023/01/12 05:43:49;;;;;;;11.17;2.80;;;9.90;78.80;;;;;;5048570;28;20449;-68
2023/01/12 05:46:19;;;;;;;17.90;3.50;;;9.90;78.90;;;;;;5049560;28;20491;-68
2023/01/12 05:48:48;;;;;;;14.57;3.87;;;9.90;78.90;;;;;;5044285;28;20455;-68
2023/01/12 05:51:16;;;;;;;12.83;3.00;;;9.90;79.00;;;;;;5049222;28;20463;-68
2023/01/12 05:53:45;;;;;;;14.13;2.80;;;9.90;78.90;;;;;;5042226;28;20477;-70
2023/01/12 05:56:18;;;;;;;15.23;2.90;;;9.90;79.00;;;;;;5045635;28;21057;-70
2023/01/12 05:58:51;;;;;;;8.80;2.73;;;9.90;78.90;;;;;;5046676;28;20470;-70
2023/01/12 06:01:20;;;;;;;8.37;2.27;;;9.90;78.80;;;;;;5046907;28;20820;-70
2023/01/12 06:03:49;;;;;;;12.43;2.90;;;10.00;78.80;;;;;;5040124;28;21409;-70
2023/01/12 06:06:17;;;;;;;14.70;2.70;;;10.00;78.80;;;;;;5041769;28;20487;-69
2023/01/12 06:08:45;;;;;;;9.80;2.87;;;10.00;78.70;;;;;;5036855;28;20464;-70
2023/01/12 06:13:58;;;;;;;15.07;2.90;;;10.00;78.80;;;;;;5043238;28;20536;-68
2023/01/12 06:16:26;;;;;;;8.93;2.63;;;9.90;78.70;;;;;;5047637;28;20483;-69
2023/01/12 06:18:54;;;;;;;13.33;3.00;;;10.00;78.70;;;;;;5040382;28;20478;-69
2023/01/12 06:21:25;;;;;;;14.73;2.30;;;9.90;78.60;;;;;;5043245;28;20459;-69
2023/01/12 06:23:53;;;;;;;17.10;3.00;;;9.90;78.70;;;;;;5043007;28;20454;-67
2023/01/12 06:26:21;;;;;;;9.53;2.20;;;9.90;78.70;;;;;;5040503;28;20486;-68
2023/01/12 06:28:49;;;;;;;14.07;2.90;;;9.90;78.80;;;;;;5042899;28;20808;-69
2023/01/12 06:31:18;;;;;;;15.33;2.80;;;9.90;78.80;;;;;;5046063;28;20467;-69
2023/01/12 06:33:46;;;;;;;9.53;2.00;;;9.90;78.80;;;;;;5047174;28;20493;-68
2023/01/12 06:36:14;;;;;;;12.60;2.60;;;9.90;78.70;;;;;;5048656;28;20547;-69
2023/01/12 06:38:43;;;;;;;14.23;2.60;;;9.90;78.60;;;;;;5046340;28;20442;-72
2023/01/12 06:42:27;;;;;;;17.70;3.20;;;9.90;78.50;;;;;;5053227;28;20952;-69
2023/01/12 06:44:01;;;;;;;7.57;2.33;;;9.80;78.80;;;;;;5051332;28;20455;-69
2023/01/12 06:46:30;;;;;;;10.87;2.37;;;9.80;78.70;;;;;;5050540;28;20477;-69
2023/01/12 06:48:58;;;;;;;12.53;2.57;;;9.80;78.80;;;;;;5045530;28;20545;-70
2023/01/12 06:51:26;;;;;;;13.10;2.47;;;9.90;78.80;;;;;;5047430;28;21232;-69
2023/01/12 06:53:54;;;;;;;12.13;2.30;;;9.90;78.80;;;;;;5045036;28;20519;-68
2023/01/12 06:56:22;;;;;;;13.17;2.57;;;9.90;78.90;;;;;;5047689;28;20992;-69
2023/01/12 06:58:50;;;;;;;12.63;2.63;;;9.90;78.90;;;;;;5045027;28;21038;-69
2023/01/12 07:01:19;;;;;;;9.33;2.60;;;9.90;78.90;;;;;;5046160;28;20544;-68
2023/01/12 07:03:48;;;;;;;13.03;3.13;;;9.90;78.80;;;;;;5051483;28;20509;-68
2023/01/12 07:06:16;;;;;;;10.93;3.13;;;9.80;78.90;;;;;;5049774;28;20476;-69
2023/01/12 07:08:44;;;;;;;11.40;2.50;;;9.90;78.90;;;;;;5044234;28;20455;-69
2023/01/12 07:11:13;;;;;;;9.13;2.57;;;9.80;79.00;;;;;;5049063;28;20788;-70
2023/01/12 07:13:41;;;;;;;7.03;2.63;;;9.90;79.00;;;;;;5053754;28;20972;-68
2023/01/12 07:16:09;;;;;;;13.07;2.77;;;9.90;79.00;;;;;;5048410;28;20560;-69
2023/01/12 07:18:37;;;;;;;9.90;2.93;;;9.80;79.00;;;;;;5047525;28;20521;-68
2023/01/12 07:21:09;;;;;;;9.80;2.20;;;9.80;79.00;;;;;;5047099;28;20480;-68
2023/01/12 07:23:37;;;;;;;10.77;2.50;;;9.90;79.00;;;;;;5048499;28;20953;-67
2023/01/12 07:26:05;;;;;;;20.53;2.60;;;9.90;78.90;;;;;;5043712;28;20944;-67
2023/01/12 07:28:33;;;;;;;18.10;3.37;;;9.90;79.00;;;;;;5049405;28;20441;-69
2023/01/12 07:31:01;;;;;;;13.30;3.60;;;9.90;79.00;;;;;;5054563;28;20446;-68
2023/01/12 07:33:30;;;;;;;12.13;2.40;;;9.90;78.90;;;;;;5049844;28;20455;-67
2023/01/12 07:35:58;;;;;;;11.37;2.37;;;9.90;78.90;;;;;;5045606;28;20483;-67
2023/01/12 07:38:29;;;;;;;17.30;3.50;;;9.90;78.90;;;;;;5045205;28;20454;-67
2023/01/12 07:40:58;;;;;;;11.63;2.83;;;9.90;79.10;;;;;;5048291;28;20478;-68
2023/01/12 07:43:25;;;;;;;11.60;2.70;;;9.90;79.10;;;;;;5047793;28;21284;-68
2023/01/12 07:45:55;;;;;;;9.50;2.33;;;9.90;79.10;;;;;;5050007;28;21108;-69
2023/01/12 07:48:25;;;;;;;12.37;2.60;;;9.90;79.00;;;;;;5045431;28;21260;-68
2023/01/12 07:50:53;;;;;;;12.50;2.50;;;9.90;79.00;;;;;;5047379;28;20435;-69
2023/01/12 07:53:22;;;;;;;16.60;2.73;;;9.90;79.10;;;;;;5052297;28;20459;-68
2023/01/12 07:55:51;;;;;;;10.20;2.53;;;9.90;79.00;;;;;;5051576;28;20477;-68
2023/01/12 07:58:19;;;;;;;7.80;1.90;;;9.90;79.10;;;;;;5052360;28;20484;-68
2023/01/12 08:00:47;;;;;;;10.80;1.87;;;9.90;79.10;;;;;;5053051;28;20548;-68
2023/01/12 08:03:15;;;;;;;14.10;3.60;;;9.90;79.20;;;;;;5047524;28;20455;-68
2023/01/12 08:05:45;;;;;;;12.27;3.30;;;9.90;79.20;;;;;;5047515;28;20462;-68
2023/01/12 08:08:14;;;;;;;10.83;2.10;;;9.90;79.20;;;;;;5045317;28;21062;-68
2023/01/12 08:10:44;;;;;;;10.80;2.30;;;9.90;79.20;;;;;;5047117;28;20971;-69
2023/01/12 08:13:13;;;;;;;12.63;2.40;;;9.90;79.30;;;;;;5054795;28;21176;-67
2023/01/12 08:15:46;;;;;;;10.40;2.77;;;10.00;79.30;;;;;;5055881;28;20446;-68
2023/01/12 08:18:18;;;;;;;8.20;2.17;;;10.00;79.30;;;;;;5050083;28;20458;-68
2023/01/12 08:20:47;;;;;;;7.20;2.37;;;10.00;79.30;;;;;;5043225;28;20469;-68
2023/01/12 08:23:19;;;;;;;10.93;3.07;;;10.00;79.30;;;;;;5038163;28;20470;-68
2023/01/12 08:25:53;;;;;;;13.03;3.10;;;10.00;79.50;;;;;;5047106;28;20491;-68
2023/01/12 08:28:32;;;;;;;15.70;2.27;;;10.00;79.50;;;;;;5054424;28;20461;-68
2023/01/12 08:31:00;;;;;;;11.33;2.23;;;10.00;79.30;;;;;;5055332;28;20510;-68
2023/01/12 08:33:28;;;;;;;5.47;1.80;;;10.00;79.30;;;;;;5051872;28;21020;-68
2023/01/12 08:35:57;;;;;;;12.63;2.37;;;10.00;79.50;;;;;;5045828;28;21056;-68
2023/01/12 08:38:25;;;;;;;8.80;2.40;;;10.00;79.50;;;;;;5046222;28;20466;-68
2023/01/12 08:46:25;;;;;;;12.67;1.90;;;10.00;79.50;;;;;;5051961;28;20478;-68
2023/01/12 08:48:53;;;;;;;12.10;2.30;;;10.00;79.50;;;;;;5048599;28;20549;-68
2023/01/12 08:51:21;;;;;;;13.40;2.37;;;10.00;79.30;;;;;;5044011;28;20533;-68
2023/01/12 08:53:49;;;;;;;10.40;1.97;;;10.00;79.50;;;;;;5048563;28;20438;-68
2023/01/12 08:56:17;;;;;;;7.80;1.40;;;10.00;79.60;;;;;;5054256;28;20474;-67
2023/01/12 08:58:48;;;;;;;9.13;1.50;;;10.00;79.50;;;;;;5044443;28;20456;-67
2023/01/12 09:01:18;;;;;;;10.50;2.00;;;10.00;79.60;;;;;;5043094;28;20473;-68
2023/01/12 09:03:47;;;;;;;6.80;1.40;;;10.00;79.60;;;;;;5046333;28;20455;-68
2023/01/12 09:06:17;;;;;;;7.80;1.97;;;10.00;79.60;;;;;;5046190;28;20497;-68
2023/01/12 09:08:46;;;;;;;9.30;1.80;;;10.00;79.60;;;;;;5043575;28;21096;-67
2023/01/12 09:11:15;;;;;;;9.33;1.87;;;10.00;79.70;;;;;;5041338;28;20460;-67
2023/01/12 09:13:43;;;;;;;8.97;1.80;;;10.00;79.70;;;;;;5047725;28;20510;-68
2023/01/12 09:16:14;;;;;;;9.83;1.40;;;10.00;79.80;;;;;;5050461;28;20474;-68
2023/01/12 09:18:43;;;;;;;9.20;2.10;;;10.00;79.80;;;;;;5041201;28;21133;-68
2023/01/12 09:21:13;;;;;;;10.63;1.77;;;10.00;79.90;;;;;;5038698;28;20470;-67
2023/01/12 09:23:41;;;;;;;7.87;1.43;;;10.00;79.90;;;;;;5048301;28;20450;-67
2023/01/12 09:26:11;;;;;;;8.23;1.67;;;10.00;79.90;;;;;;5050764;28;20674;-67
2023/01/12 09:28:39;;;;;;;9.27;1.60;;;10.00;80.00;;;;;;5048278;28;21063;-68
2023/01/12 09:31:09;;;;;;;7.87;1.90;;;10.00;80.00;;;;;;5044596;28;20447;-66
2023/01/12 09:33:40;;;;;;;10.00;2.10;;;10.00;80.10;;;;;;5045763;28;20489;-67
2023/01/12 09:36:10;;;;;;;9.17;1.87;;;10.00;80.10;;;;;;5051857;28;20477;-68
2023/01/12 09:38:40;;;;;;;9.83;2.03;;;10.00;80.10;;;;;;5050914;28;20925;-68
2023/01/12 09:41:11;;;;;;;4.47;1.30;;;10.00;80.20;;;;;;5050387;28;20471;-68
2023/01/12 09:49:18;;;;;;;7.10;1.80;;;10.10;80.20;;;;;;5037614;28;20451;-68
2023/01/12 09:51:54;;;;;;;6.57;1.73;;;10.10;80.00;;;;;;5038169;28;20456;-68
2023/01/12 09:54:22;;;;;;;9.70;1.50;;;10.10;80.20;;;;;;5048865;28;20453;-67
2023/01/12 09:56:59;;;;;;;6.50;1.53;;;10.10;80.20;;;;;;5047755;28;20492;-67
2023/01/12 09:59:44;;;;;;;10.27;2.33;;;10.10;80.30;;;;;;5043779;28;20446;-67
2023/01/12 10:02:13;;;;;;;10.00;2.33;;;10.10;80.40;;;;;;5044116;28;20474;-67
2023/01/12 10:04:43;;;;;;;9.17;1.87;;;10.10;80.40;;;;;;5043521;28;21183;-66
2023/01/12 10:07:14;;;;;;;7.90;1.23;;;10.10;80.40;;;;;;5044398;28;20474;-67
2023/01/12 10:09:43;;;;;;;11.37;1.43;;;10.10;80.40;;;;;;5048243;28;20504;-68
2023/01/12 10:12:19;;;;;;;6.17;1.33;;;10.10;80.30;;;;;;5041245;28;20447;-68
2023/01/12 10:15:05;;;;;;;5.00;1.50;;;10.10;80.40;;;;;;5045663;28;20496;-68
2023/01/12 10:17:43;;;;;;;6.37;1.67;;;10.20;80.40;;;;;;5048786;28;20482;-68
2023/01/12 10:20:26;;;;;;;9.40;1.83;;;10.20;80.40;;;;;;5048640;28;20533;-68
2023/01/12 10:23:01;;;;;;;5.30;1.67;;;10.20;80.30;;;;;;5049224;28;20487;-68
2023/01/12 10:25:37;;;;;;;10.43;2.03;;;10.20;80.40;;;;;;5051243;28;20466;-68
2023/01/12 10:28:14;;;;;;;9.00;1.70;;;10.20;80.50;;;;;;5038626;28;20449;-68
2023/01/12 10:30:42;;;;;;;8.77;1.67;;;10.20;80.40;;;;;;5040216;28;20450;-69
2023/01/12 10:33:16;;;;;;;8.90;1.50;;;10.20;80.30;;;;;;5034551;28;20489;-68
2023/01/12 10:35:53;;;;;;;5.33;1.30;;;10.20;80.40;;;;;;5040261;28;20667;-68
2023/01/12 10:38:24;;;;;;;10.53;1.63;;;10.30;80.40;;;;;;5042038;28;20461;-68
2023/01/12 10:41:11;;;;;;;14.83;3.13;;;10.30;80.50;;;;;;5047277;28;20443;-68
2023/01/12 10:43:41;;;;;;;9.97;2.27;;;10.30;80.50;;;;;;5055878;28;20455;-68
2023/01/12 10:46:16;;;;;;;7.37;1.53;;;10.30;80.50;;;;;;5052489;28;20490;-68
2023/01/12 10:48:46;;;;;;;7.33;2.03;;;10.40;80.40;;;;;;5053136;28;20442;-67
2023/01/12 10:51:25;;;;;;;24.20;2.90;;;10.40;80.40;;;;;;5055321;28;20462;-66
2023/01/12 10:53:57;;;;;;;6.33;1.77;;;10.40;80.30;;;;;;5050747;28;20470;-67
2023/01/12 10:56:31;;;;;;;6.67;1.80;;;10.40;80.30;;;;;;5053460;28;20470;-68
2023/01/12 10:59:02;;;;;;;12.43;2.90;;;10.40;80.40;;;;;;5054206;28;20451;-68
2023/01/12 11:01:43;;;;;;;6.27;1.83;;;10.40;80.40;;;;;;5048500;28;20509;-68
2023/01/12 11:04:14;;;;;;;7.27;1.40;;;10.40;80.40;;;;;;5052433;28;20494;-68
2023/01/12 11:06:45;;;;;;;8.67;1.60;;;10.40;80.40;;;;;;5049686;28;21007;-67
2023/01/12 11:09:24;;;;;;;9.17;2.03;;;10.50;80.30;;;;;;5054392;28;20858;-68
2023/01/12 11:11:56;;;;;;;5.97;1.37;;;10.50;80.20;;;;;;5053497;28;20446;-68
2023/01/12 11:14:28;;;;;;;9.83;1.53;;;10.40;80.30;;;;;;5050721;28;20454;-69
2023/01/12 11:17:07;;;;;;;6.57;1.63;;;10.50;80.30;;;;;;5050753;28;20485;-66
2023/01/12 11:19:40;;;;;;;5.37;1.70;;;10.50;80.30;;;;;;5048272;28;20526;-68
2023/01/12 11:22:16;;;;;;;7.50;1.40;;;10.50;80.30;;;;;;5053303;28;20488;-68
2023/01/12 11:24:51;;;;;;;6.57;1.40;;;10.50;80.30;;;;;;5063164;28;20470;-68
2023/01/12 11:27:26;;;;;;;7.13;1.23;;;10.50;80.20;;;;;;5050152;28;20474;-69
2023/01/12 11:29:58;;;;;;;8.40;1.63;;;10.60;80.00;;;;;;5051299;28;20450;-66
2023/01/12 11:32:39;;;;;;;11.37;1.73;;;10.60;80.10;;;;;;5051599;28;20450;-68
2023/01/12 11:35:26;;;;;;;5.93;1.30;;;10.60;80.00;;;;;;5048447;28;20451;-67
2023/01/12 11:37:59;;;;;;;5.93;1.30;;;10.60;80.10;;;;;;5047320;28;20438;-67
2023/01/12 11:40:32;;;;;;;10.57;1.10;;;10.60;80.10;;;;;;5043522;28;20474;-69
2023/01/12 11:46:03;;;;;;;4.83;1.07;;;10.80;79.70;;;;;;5045438;28;21039;-68
2023/01/12 11:48:38;;;;;;;10.30;1.40;;;10.80;79.50;;;;;;5042602;28;21027;-68
2023/01/12 11:51:15;;;;;;;12.53;1.27;;;10.80;79.50;;;;;;5048509;28;21011;-67
2023/01/12 11:53:45;;;;;;;5.90;1.30;;;10.80;79.50;;;;;;5051866;28;20450;-68
2023/01/12 11:56:35;;;;;;;7.63;1.57;;;10.80;79.50;;;;;;5048073;28;21078;-68
2023/01/12 11:59:11;;;;;;;9.10;1.50;;;10.90;79.60;;;;;;5041862;28;20447;-68
2023/01/12 12:01:46;;;;;;;4.80;0.90;;;10.90;79.40;;;;;;5060238;28;20510;-68
2023/01/12 12:04:31;;;;;;;4.00;1.07;;;10.90;79.40;;;;;;5045370;28;20562;-69
2023/01/12 12:07:16;;;;;;;8.07;0.80;;;10.90;79.30;;;;;;5050119;28;20490;-69
2023/01/12 12:09:59;;;;;;;6.60;1.43;;;10.90;79.40;;;;;;5049193;28;20461;-67
2023/01/12 12:12:39;;;;;;;7.53;1.40;;;11.00;79.00;;;;;;5048253;28;20466;-69
2023/01/12 12:15:20;;;;;;;10.47;1.70;;;11.00;79.20;;;;;;5042217;28;21225;-70
2023/01/12 12:17:56;;;;;;;4.70;1.03;;;11.10;79.20;;;;;;5041589;28;20503;-70
2023/01/12 12:20:32;;;;;;;6.93;1.30;;;11.10;79.20;;;;;;5040775;28;20967;-68
2023/01/12 12:23:11;;;;;;;9.30;1.47;;;11.10;79.30;;;;;;5046662;28;20471;-68
2023/01/12 12:25:50;;;;;;;4.30;1.00;;;11.20;79.00;;;;;;5048797;28;20607;-68
2023/01/12 12:28:42;;;;;;;4.27;0.87;;;11.20;78.70;;;;;;5053411;28;20458;-69
2023/01/12 12:31:32;;;;;;;8.53;1.50;;;11.20;78.90;;;;;;5043221;28;20532;-70
2023/01/12 12:34:25;;;;;;;7.60;1.10;;;11.20;78.90;;;;;;5041441;28;20467;-68
2023/01/12 12:36:59;;;;;;;5.77;1.20;;;11.20;78.70;;;;;;5048227;28;20486;-69
2023/01/12 12:39:35;;;;;;;7.60;1.50;;;11.20;78.60;;;;;;5045767;28;20469;-69
2023/01/12 12:45:20;;;;;;;5.20;1.00;;;11.20;78.90;;;;;;5049723;28;20452;-68
2023/01/12 12:47:58;;;;;;;4.00;1.10;;;11.20;78.90;;;;;;5048755;28;20490;-69
2023/01/12 12:50:31;;;;;;;4.97;1.10;;;11.20;78.70;;;;;;5045968;28;20442;-67
2023/01/12 12:53:19;;;;;;;5.60;1.30;;;11.20;78.70;;;;;;5047217;28;20867;-68
2023/01/12 12:55:50;;;;;;;7.73;1.20;;;11.30;78.50;;;;;;5046276;28;20497;-69
2023/01/12 12:58:40;;;;;;;5.37;1.00;;;11.20;78.50;;;;;;5047256;28;20454;-69
2023/01/12 13:01:38;;;;;;;3.90;1.17;;;11.20;78.50;;;;;;5045376;28;20463;-70
2023/01/12 13:04:08;;;;;;;2.90;0.80;;;11.20;78.70;;;;;;5047623;28;20485;-70
2023/01/12 13:06:37;;;;;;;5.73;1.23;;;11.20;78.70;;;;;;5042481;28;20548;-70
2023/01/12 13:09:36;;;;;;;8.30;1.17;;;11.20;78.70;;;;;;5053877;28;21061;-69
2023/01/12 13:12:35;;;;;;;6.60;1.30;;;11.20;78.70;;;;;;5051501;28;20468;-70
2023/01/12 13:15:28;;;;;;;5.03;0.90;;;11.20;78.50;;;;;;5009114;28;20471;-69
2023/01/12 13:17:56;;;;;;;6.87;0.87;;;11.20;78.50;;;;;;5040165;28;20586;-69
2023/01/12 13:20:58;;;;;;;3.87;1.00;;;11.20;78.50;;;;;;5052108;28;21033;-68
2023/01/12 13:23:49;;;;;;;4.57;0.80;;;11.20;78.40;;;;;;5048637;28;20478;-69
2023/01/12 13:26:51;;;;;;;6.53;0.87;;;11.20;78.30;;;;;;5044212;28;20479;-69
2023/01/12 13:29:49;;;;;;;3.47;0.70;;;11.10;78.50;;;;;;5042103;28;20458;-69
2023/01/12 13:32:41;;;;;;;3.90;0.80;;;11.20;78.40;;;;;;5046290;28;20489;-68
2023/01/12 13:35:44;;;;;;;4.37;1.17;;;11.20;78.40;;;;;;5048282;28;20554;-69
2023/01/12 13:38:18;;;;;;;8.60;1.30;;;11.20;78.50;;;;;;5043722;28;20459;-70
2023/01/12 13:40:47;;;;;;;4.10;1.03;;;11.20;78.50;;;;;;5039752;28;20467;-69
2023/01/12 13:43:26;;;;;;;5.07;1.07;;;11.10;78.70;;;;;;5042415;28;20597;-69
2023/01/12 13:45:57;;;;;;;4.53;0.73;;;11.10;78.70;;;;;;5041045;28;21106;-69
2023/01/12 13:48:29;;;;;;;5.37;1.00;;;11.10;78.90;;;;;;5046320;28;20455;-68
2023/01/12 13:51:02;;;;;;;5.07;0.97;;;11.10;78.90;;;;;;5046111;28;20447;-68
2023/01/12 13:53:31;;;;;;;4.43;0.90;;;11.10;78.90;;;;;;5045915;28;20442;-69
2023/01/12 13:56:01;;;;;;;5.80;0.90;;;11.10;78.90;;;;;;5049661;28;20543;-69